sensor_id;sensor_type;location;lat;lon;timestamp;P1;durP1;ratioP1;P2;durP2;ratioP2
28629;SDS011;15817;42.130;24.762;2023-06-22T00:00:59;7.82;;;6.85;;
28629;SDS011;15817;42.130;24.762;2023-06-22T00:03:28;13.48;;;7.20;;
28629;SDS011;15817;42.130;24.762;2023-06-22T00:05:54;7.75;;;6.95;;
28629;SDS011;15817;42.130;24.762;2023-06-22T00:08:20;16.58;;;7.55;;
28629;SDS011;15817;42.130;24.762;2023-06-22T00:10:45;10.48;;;7.20;;
28629;SDS011;15817;42.130;24.762;2023-06-22T00:13:12;8.25;;;7.25;;
28629;SDS011;15817;42.130;24.762;2023-06-22T00:15:39;9.30;;;7.30;;
28629;SDS011;15817;42.130;24.762;2023-06-22T00:18:07;9.32;;;7.25;;
28629;SDS011;15817;42.130;24.762;2023-06-22T00:20:33;9.98;;;7.20;;
28629;SDS011;15817;42.130;24.762;2023-06-22T00:23:02;8.52;;;7.55;;
28629;SDS011;15817;42.130;24.762;2023-06-22T00:25:36;8.52;;;7.65;;
28629;SDS011;15817;42.130;24.762;2023-06-22T00:28:02;9.00;;;7.40;;
28629;SDS011;15817;42.130;24.762;2023-06-22T00:30:30;10.35;;;7.68;;
28629;SDS011;15817;42.130;24.762;2023-06-22T00:32:56;8.98;;;7.85;;
28629;SDS011;15817;42.130;24.762;2023-06-22T00:35:23;9.85;;;7.47;;
28629;SDS011;15817;42.130;24.762;2023-06-22T00:37:57;8.70;;;7.25;;
28629;SDS011;15817;42.130;24.762;2023-06-22T00:40:29;11.02;;;7.35;;
28629;SDS011;15817;42.130;24.762;2023-06-22T00:42:56;8.43;;;6.68;;
28629;SDS011;15817;42.130;24.762;2023-06-22T00:45:25;8.40;;;6.90;;
28629;SDS011;15817;42.130;24.762;2023-06-22T00:47:56;8.55;;;6.57;;
28629;SDS011;15817;42.130;24.762;2023-06-22T00:50:24;7.80;;;6.50;;
28629;SDS011;15817;42.130;24.762;2023-06-22T00:52:52;9.80;;;6.85;;
28629;SDS011;15817;42.130;24.762;2023-06-22T00:55:22;10.20;;;6.88;;
28629;SDS011;15817;42.130;24.762;2023-06-22T00:57:48;10.25;;;7.15;;
28629;SDS011;15817;42.130;24.762;2023-06-22T01:00:15;11.38;;;7.72;;
28629;SDS011;15817;42.130;24.762;2023-06-22T01:02:43;10.07;;;7.22;;
28629;SDS011;15817;42.130;24.762;2023-06-22T01:05:15;10.80;;;6.97;;
28629;SDS011;15817;42.130;24.762;2023-06-22T01:18:31;12.57;;;7.38;;
28629;SDS011;15817;42.130;24.762;2023-06-22T01:21:01;9.88;;;6.65;;
28629;SDS011;15817;42.130;24.762;2023-06-22T01:28:50;10.85;;;6.72;;
28629;SDS011;15817;42.130;24.762;2023-06-22T01:31:23;7.60;;;6.55;;
28629;SDS011;15817;42.130;24.762;2023-06-22T01:33:53;11.73;;;7.13;;
28629;SDS011;15817;42.130;24.762;2023-06-22T01:36:21;11.10;;;7.47;;
28629;SDS011;15817;42.130;24.762;2023-06-22T01:38:49;10.82;;;7.47;;
28629;SDS011;15817;42.130;24.762;2023-06-22T01:41:18;13.10;;;7.00;;
28629;SDS011;15817;42.130;24.762;2023-06-22T01:43:46;13.07;;;7.05;;
28629;SDS011;15817;42.130;24.762;2023-06-22T01:46:13;14.32;;;7.68;;
28629;SDS011;15817;42.130;24.762;2023-06-22T01:48:39;8.13;;;6.55;;
28629;SDS011;15817;42.130;24.762;2023-06-22T01:51:06;11.90;;;7.13;;
28629;SDS011;15817;42.130;24.762;2023-06-22T01:53:32;11.07;;;6.80;;
28629;SDS011;15817;42.130;24.762;2023-06-22T01:56:00;12.10;;;7.05;;
28629;SDS011;15817;42.130;24.762;2023-06-22T01:58:28;10.25;;;7.00;;
28629;SDS011;15817;42.130;24.762;2023-06-22T02:01:13;8.27;;;7.45;;
28629;SDS011;15817;42.130;24.762;2023-06-22T02:06:47;11.50;;;7.68;;
28629;SDS011;15817;42.130;24.762;2023-06-22T02:09:20;11.70;;;7.35;;
28629;SDS011;15817;42.130;24.762;2023-06-22T02:11:47;13.20;;;7.88;;
28629;SDS011;15817;42.130;24.762;2023-06-22T02:14:18;15.13;;;7.95;;
28629;SDS011;15817;42.130;24.762;2023-06-22T02:16:45;13.73;;;8.48;;
28629;SDS011;15817;42.130;24.762;2023-06-22T02:19:11;18.35;;;7.65;;
28629;SDS011;15817;42.130;24.762;2023-06-22T02:21:37;16.77;;;8.23;;
28629;SDS011;15817;42.130;24.762;2023-06-22T02:24:03;16.58;;;7.35;;
28629;SDS011;15817;42.130;24.762;2023-06-22T02:26:30;11.77;;;8.02;;
28629;SDS011;15817;42.130;24.762;2023-06-22T02:28:57;8.55;;;7.63;;
28629;SDS011;15817;42.130;24.762;2023-06-22T02:31:22;8.95;;;7.43;;
28629;SDS011;15817;42.130;24.762;2023-06-22T02:33:56;11.55;;;7.10;;
28629;SDS011;15817;42.130;24.762;2023-06-22T02:36:24;10.40;;;7.32;;
28629;SDS011;15817;42.130;24.762;2023-06-22T02:38:52;16.67;;;7.38;;
28629;SDS011;15817;42.130;24.762;2023-06-22T02:41:19;9.73;;;7.43;;
28629;SDS011;15817;42.130;24.762;2023-06-22T02:43:45;15.07;;;7.22;;
28629;SDS011;15817;42.130;24.762;2023-06-22T02:46:14;17.35;;;6.97;;
28629;SDS011;15817;42.130;24.762;2023-06-22T02:48:41;12.45;;;7.80;;
28629;SDS011;15817;42.130;24.762;2023-06-22T02:51:07;12.90;;;8.45;;
28629;SDS011;15817;42.130;24.762;2023-06-22T02:53:35;21.63;;;8.52;;
28629;SDS011;15817;42.130;24.762;2023-06-22T02:56:01;20.10;;;8.20;;
28629;SDS011;15817;42.130;24.762;2023-06-22T02:58:33;10.40;;;8.23;;
28629;SDS011;15817;42.130;24.762;2023-06-22T03:01:06;12.07;;;7.28;;
28629;SDS011;15817;42.130;24.762;2023-06-22T03:03:34;11.90;;;7.63;;
28629;SDS011;15817;42.130;24.762;2023-06-22T03:05:59;12.30;;;7.55;;
28629;SDS011;15817;42.130;24.762;2023-06-22T03:08:28;13.57;;;8.13;;
28629;SDS011;15817;42.130;24.762;2023-06-22T03:10:55;16.45;;;8.15;;
28629;SDS011;15817;42.130;24.762;2023-06-22T03:13:21;12.07;;;8.13;;
28629;SDS011;15817;42.130;24.762;2023-06-22T03:15:50;10.45;;;8.07;;
28629;SDS011;15817;42.130;24.762;2023-06-22T03:18:16;11.15;;;7.65;;
28629;SDS011;15817;42.130;24.762;2023-06-22T03:20:41;16.60;;;7.45;;
28629;SDS011;15817;42.130;24.762;2023-06-22T03:23:08;8.23;;;6.93;;
28629;SDS011;15817;42.130;24.762;2023-06-22T03:25:34;7.70;;;6.65;;
28629;SDS011;15817;42.130;24.762;2023-06-22T03:28:06;12.63;;;7.30;;
28629;SDS011;15817;42.130;24.762;2023-06-22T03:30:32;9.20;;;7.30;;
28629;SDS011;15817;42.130;24.762;2023-06-22T03:32:59;17.50;;;7.65;;
28629;SDS011;15817;42.130;24.762;2023-06-22T03:35:25;11.68;;;6.97;;
28629;SDS011;15817;42.130;24.762;2023-06-22T03:37:51;9.27;;;6.57;;
28629;SDS011;15817;42.130;24.762;2023-06-22T03:40:17;11.10;;;6.90;;
28629;SDS011;15817;42.130;24.762;2023-06-22T03:42:43;8.68;;;6.15;;
28629;SDS011;15817;42.130;24.762;2023-06-22T03:45:09;10.38;;;6.68;;
28629;SDS011;15817;42.130;24.762;2023-06-22T03:47:35;8.57;;;7.10;;
28629;SDS011;15817;42.130;24.762;2023-06-22T03:50:01;9.65;;;6.97;;
28629;SDS011;15817;42.130;24.762;2023-06-22T03:52:28;9.73;;;6.45;;
28629;SDS011;15817;42.130;24.762;2023-06-22T03:54:55;10.27;;;7.38;;
28629;SDS011;15817;42.130;24.762;2023-06-22T03:57:21;10.68;;;7.57;;
28629;SDS011;15817;42.130;24.762;2023-06-22T03:59:46;11.35;;;6.95;;
28629;SDS011;15817;42.130;24.762;2023-06-22T04:02:15;8.10;;;7.30;;
28629;SDS011;15817;42.130;24.762;2023-06-22T04:04:41;12.70;;;7.15;;
28629;SDS011;15817;42.130;24.762;2023-06-22T04:07:07;10.05;;;7.00;;
28629;SDS011;15817;42.130;24.762;2023-06-22T04:09:33;12.98;;;7.20;;
28629;SDS011;15817;42.130;24.762;2023-06-22T04:11:59;8.65;;;6.80;;
28629;SDS011;15817;42.130;24.762;2023-06-22T04:14:28;14.40;;;7.30;;
28629;SDS011;15817;42.130;24.762;2023-06-22T04:16:54;14.07;;;6.90;;
28629;SDS011;15817;42.130;24.762;2023-06-22T04:19:20;42.75;;;9.20;;
28629;SDS011;15817;42.130;24.762;2023-06-22T04:21:46;14.07;;;8.38;;
28629;SDS011;15817;42.130;24.762;2023-06-22T04:24:15;10.30;;;7.13;;
28629;SDS011;15817;42.130;24.762;2023-06-22T04:26:41;10.15;;;7.65;;
28629;SDS011;15817;42.130;24.762;2023-06-22T04:29:10;8.48;;;6.95;;
28629;SDS011;15817;42.130;24.762;2023-06-22T04:31:36;10.80;;;6.80;;
28629;SDS011;15817;42.130;24.762;2023-06-22T04:34:03;14.25;;;8.38;;
28629;SDS011;15817;42.130;24.762;2023-06-22T04:36:37;13.50;;;7.43;;
28629;SDS011;15817;42.130;24.762;2023-06-22T04:39:07;13.30;;;7.13;;
28629;SDS011;15817;42.130;24.762;2023-06-22T04:41:38;13.40;;;7.75;;
28629;SDS011;15817;42.130;24.762;2023-06-22T04:44:17;10.48;;;7.60;;
28629;SDS011;15817;42.130;24.762;2023-06-22T04:46:50;13.05;;;8.38;;
28629;SDS011;15817;42.130;24.762;2023-06-22T04:49:21;16.20;;;7.60;;
28629;SDS011;15817;42.130;24.762;2023-06-22T04:51:47;19.63;;;7.18;;
28629;SDS011;15817;42.130;24.762;2023-06-22T04:54:14;11.95;;;7.65;;
28629;SDS011;15817;42.130;24.762;2023-06-22T04:57:01;22.42;;;8.93;;
28629;SDS011;15817;42.130;24.762;2023-06-22T04:59:27;13.35;;;7.15;;
28629;SDS011;15817;42.130;24.762;2023-06-22T05:01:58;13.50;;;8.00;;
28629;SDS011;15817;42.130;24.762;2023-06-22T05:04:25;20.23;;;8.90;;
28629;SDS011;15817;42.130;24.762;2023-06-22T05:07:27;14.82;;;8.18;;
28629;SDS011;15817;42.130;24.762;2023-06-22T05:09:52;16.38;;;9.20;;
28629;SDS011;15817;42.130;24.762;2023-06-22T05:12:18;15.45;;;8.43;;
28629;SDS011;15817;42.130;24.762;2023-06-22T05:14:44;18.98;;;8.10;;
28629;SDS011;15817;42.130;24.762;2023-06-22T05:17:10;20.30;;;8.20;;
28629;SDS011;15817;42.130;24.762;2023-06-22T05:19:39;9.60;;;7.22;;
28629;SDS011;15817;42.130;24.762;2023-06-22T05:22:14;9.20;;;7.03;;
28629;SDS011;15817;42.130;24.762;2023-06-22T05:24:43;14.23;;;8.07;;
28629;SDS011;15817;42.130;24.762;2023-06-22T05:27:09;12.65;;;7.90;;
28629;SDS011;15817;42.130;24.762;2023-06-22T05:29:38;15.65;;;8.75;;
28629;SDS011;15817;42.130;24.762;2023-06-22T05:32:10;17.60;;;7.88;;
28629;SDS011;15817;42.130;24.762;2023-06-22T05:34:36;16.15;;;8.55;;
28629;SDS011;15817;42.130;24.762;2023-06-22T05:37:05;15.02;;;7.57;;
28629;SDS011;15817;42.130;24.762;2023-06-22T05:39:31;11.30;;;7.72;;
28629;SDS011;15817;42.130;24.762;2023-06-22T05:41:57;8.57;;;7.18;;
28629;SDS011;15817;42.130;24.762;2023-06-22T05:44:23;11.43;;;7.57;;
28629;SDS011;15817;42.130;24.762;2023-06-22T05:46:48;13.60;;;7.90;;
28629;SDS011;15817;42.130;24.762;2023-06-22T05:49:15;11.73;;;7.00;;
28629;SDS011;15817;42.130;24.762;2023-06-22T05:51:41;13.70;;;8.07;;
28629;SDS011;15817;42.130;24.762;2023-06-22T05:54:07;9.43;;;7.35;;
28629;SDS011;15817;42.130;24.762;2023-06-22T05:56:34;10.52;;;7.78;;
28629;SDS011;15817;42.130;24.762;2023-06-22T05:59:00;8.95;;;7.07;;
28629;SDS011;15817;42.130;24.762;2023-06-22T06:01:27;11.85;;;7.53;;
28629;SDS011;15817;42.130;24.762;2023-06-22T06:04:03;8.93;;;6.82;;
28629;SDS011;15817;42.130;24.762;2023-06-22T06:06:33;15.43;;;7.55;;
28629;SDS011;15817;42.130;24.762;2023-06-22T06:09:05;15.50;;;7.20;;
28629;SDS011;15817;42.130;24.762;2023-06-22T06:11:32;8.13;;;6.13;;
28629;SDS011;15817;42.130;24.762;2023-06-22T06:14:05;8.35;;;7.43;;
28629;SDS011;15817;42.130;24.762;2023-06-22T06:16:39;11.85;;;6.63;;
28629;SDS011;15817;42.130;24.762;2023-06-22T06:19:08;11.00;;;7.70;;
28629;SDS011;15817;42.130;24.762;2023-06-22T06:21:33;13.85;;;7.45;;
28629;SDS011;15817;42.130;24.762;2023-06-22T06:23:59;7.85;;;7.10;;
28629;SDS011;15817;42.130;24.762;2023-06-22T06:26:25;11.65;;;7.18;;
28629;SDS011;15817;42.130;24.762;2023-06-22T06:28:55;42.58;;;8.63;;
28629;SDS011;15817;42.130;24.762;2023-06-22T06:31:24;9.13;;;6.75;;
28629;SDS011;15817;42.130;24.762;2023-06-22T06:33:58;9.38;;;6.78;;
28629;SDS011;15817;42.130;24.762;2023-06-22T06:36:24;10.85;;;7.03;;
28629;SDS011;15817;42.130;24.762;2023-06-22T06:38:50;9.93;;;6.45;;
28629;SDS011;15817;42.130;24.762;2023-06-22T06:41:16;13.63;;;6.80;;
28629;SDS011;15817;42.130;24.762;2023-06-22T06:43:48;7.85;;;6.10;;
28629;SDS011;15817;42.130;24.762;2023-06-22T06:46:14;10.27;;;6.40;;
28629;SDS011;15817;42.130;24.762;2023-06-22T06:48:40;8.65;;;6.75;;
28629;SDS011;15817;42.130;24.762;2023-06-22T06:51:16;9.52;;;6.25;;
28629;SDS011;15817;42.130;24.762;2023-06-22T06:53:50;11.13;;;5.80;;
28629;SDS011;15817;42.130;24.762;2023-06-22T06:56:16;9.63;;;6.22;;
28629;SDS011;15817;42.130;24.762;2023-06-22T06:58:57;9.73;;;6.15;;
28629;SDS011;15817;42.130;24.762;2023-06-22T07:01:26;11.18;;;6.15;;
28629;SDS011;15817;42.130;24.762;2023-06-22T07:03:52;8.73;;;6.63;;
28629;SDS011;15817;42.130;24.762;2023-06-22T07:06:23;8.05;;;6.00;;
28629;SDS011;15817;42.130;24.762;2023-06-22T07:08:54;11.52;;;6.43;;
28629;SDS011;15817;42.130;24.762;2023-06-22T07:11:20;10.68;;;6.28;;
28629;SDS011;15817;42.130;24.762;2023-06-22T07:13:48;6.95;;;6.25;;
28629;SDS011;15817;42.130;24.762;2023-06-22T07:16:14;9.52;;;6.35;;
28629;SDS011;15817;42.130;24.762;2023-06-22T07:18:40;10.85;;;5.78;;
28629;SDS011;15817;42.130;24.762;2023-06-22T07:21:06;9.85;;;6.50;;
28629;SDS011;15817;42.130;24.762;2023-06-22T07:23:37;25.00;;;6.93;;
28629;SDS011;15817;42.130;24.762;2023-06-22T07:26:03;11.95;;;6.35;;
28629;SDS011;15817;42.130;24.762;2023-06-22T07:28:31;9.27;;;6.45;;
28629;SDS011;15817;42.130;24.762;2023-06-22T07:31:08;7.32;;;6.15;;
28629;SDS011;15817;42.130;24.762;2023-06-22T07:33:34;9.05;;;6.63;;
28629;SDS011;15817;42.130;24.762;2023-06-22T07:35:59;7.03;;;6.25;;
28629;SDS011;15817;42.130;24.762;2023-06-22T07:38:25;13.00;;;6.00;;
28629;SDS011;15817;42.130;24.762;2023-06-22T07:40:51;9.00;;;5.97;;
28629;SDS011;15817;42.130;24.762;2023-06-22T07:43:20;13.40;;;6.35;;
28629;SDS011;15817;42.130;24.762;2023-06-22T07:45:50;8.88;;;5.93;;
28629;SDS011;15817;42.130;24.762;2023-06-22T07:48:20;8.07;;;5.78;;
28629;SDS011;15817;42.130;24.762;2023-06-22T07:50:48;12.30;;;5.97;;
28629;SDS011;15817;42.130;24.762;2023-06-22T07:53:25;20.38;;;6.15;;
28629;SDS011;15817;42.130;24.762;2023-06-22T07:55:57;23.17;;;6.50;;
28629;SDS011;15817;42.130;24.762;2023-06-22T07:58:22;8.60;;;5.07;;
28629;SDS011;15817;42.130;24.762;2023-06-22T08:00:51;13.45;;;5.32;;
28629;SDS011;15817;42.130;24.762;2023-06-22T08:03:20;8.02;;;5.53;;
28629;SDS011;15817;42.130;24.762;2023-06-22T08:05:53;9.10;;;4.93;;
28629;SDS011;15817;42.130;24.762;2023-06-22T08:08:21;9.90;;;5.53;;
28629;SDS011;15817;42.130;24.762;2023-06-22T08:10:47;7.03;;;5.43;;
28629;SDS011;15817;42.130;24.762;2023-06-22T08:13:22;14.50;;;5.25;;
28629;SDS011;15817;42.130;24.762;2023-06-22T08:15:48;10.93;;;5.25;;
28629;SDS011;15817;42.130;24.762;2023-06-22T08:18:14;11.23;;;4.75;;
28629;SDS011;15817;42.130;24.762;2023-06-22T08:20:41;7.85;;;5.07;;
28629;SDS011;15817;42.130;24.762;2023-06-22T08:23:10;8.90;;;5.10;;
28629;SDS011;15817;42.130;24.762;2023-06-22T08:25:45;9.18;;;5.85;;
28629;SDS011;15817;42.130;24.762;2023-06-22T08:28:11;13.98;;;5.55;;
28629;SDS011;15817;42.130;24.762;2023-06-22T08:30:38;11.00;;;4.78;;
28629;SDS011;15817;42.130;24.762;2023-06-22T08:33:04;6.55;;;5.18;;
28629;SDS011;15817;42.130;24.762;2023-06-22T08:35:30;7.13;;;4.80;;
28629;SDS011;15817;42.130;24.762;2023-06-22T08:37:55;8.32;;;4.85;;
28629;SDS011;15817;42.130;24.762;2023-06-22T08:40:22;12.95;;;5.80;;
28629;SDS011;15817;42.130;24.762;2023-06-22T08:42:51;17.85;;;6.10;;
28629;SDS011;15817;42.130;24.762;2023-06-22T08:45:20;7.28;;;5.20;;
28629;SDS011;15817;42.130;24.762;2023-06-22T08:47:46;11.43;;;4.63;;
28629;SDS011;15817;42.130;24.762;2023-06-22T08:50:12;16.42;;;5.40;;
28629;SDS011;15817;42.130;24.762;2023-06-22T08:52:39;12.75;;;5.50;;
28629;SDS011;15817;42.130;24.762;2023-06-22T08:55:15;4.80;;;4.28;;
28629;SDS011;15817;42.130;24.762;2023-06-22T08:57:41;5.63;;;4.78;;
28629;SDS011;15817;42.130;24.762;2023-06-22T09:00:08;7.97;;;5.20;;
28629;SDS011;15817;42.130;24.762;2023-06-22T09:02:48;8.60;;;4.82;;
28629;SDS011;15817;42.130;24.762;2023-06-22T09:05:16;6.88;;;4.53;;
28629;SDS011;15817;42.130;24.762;2023-06-22T09:07:42;6.93;;;4.80;;
28629;SDS011;15817;42.130;24.762;2023-06-22T09:10:11;5.20;;;4.47;;
28629;SDS011;15817;42.130;24.762;2023-06-22T09:12:40;6.65;;;4.40;;
28629;SDS011;15817;42.130;24.762;2023-06-22T09:15:05;8.73;;;4.75;;
28629;SDS011;15817;42.130;24.762;2023-06-22T09:17:34;4.47;;;4.05;;
28629;SDS011;15817;42.130;24.762;2023-06-22T09:20:08;9.32;;;4.45;;
28629;SDS011;15817;42.130;24.762;2023-06-22T09:22:37;4.93;;;4.38;;
28629;SDS011;15817;42.130;24.762;2023-06-22T09:25:02;5.28;;;4.68;;
28629;SDS011;15817;42.130;24.762;2023-06-22T09:27:29;5.10;;;4.47;;
28629;SDS011;15817;42.130;24.762;2023-06-22T09:29:57;7.07;;;4.65;;
28629;SDS011;15817;42.130;24.762;2023-06-22T09:32:24;6.97;;;4.18;;
28629;SDS011;15817;42.130;24.762;2023-06-22T09:34:53;7.15;;;4.53;;
28629;SDS011;15817;42.130;24.762;2023-06-22T09:37:19;8.55;;;4.63;;
28629;SDS011;15817;42.130;24.762;2023-06-22T09:39:45;5.68;;;4.20;;
28629;SDS011;15817;42.130;24.762;2023-06-22T09:42:10;7.07;;;4.07;;
28629;SDS011;15817;42.130;24.762;2023-06-22T09:44:38;4.28;;;3.88;;
28629;SDS011;15817;42.130;24.762;2023-06-22T09:47:04;5.80;;;4.55;;
28629;SDS011;15817;42.130;24.762;2023-06-22T09:49:30;8.82;;;4.65;;
28629;SDS011;15817;42.130;24.762;2023-06-22T09:51:59;6.07;;;4.07;;
28629;SDS011;15817;42.130;24.762;2023-06-22T09:54:25;6.13;;;4.60;;
28629;SDS011;15817;42.130;24.762;2023-06-22T09:56:51;7.55;;;3.78;;
28629;SDS011;15817;42.130;24.762;2023-06-22T09:59:16;8.00;;;4.00;;
28629;SDS011;15817;42.130;24.762;2023-06-22T10:01:42;7.05;;;4.38;;
28629;SDS011;15817;42.130;24.762;2023-06-22T10:04:10;4.95;;;4.20;;
28629;SDS011;15817;42.130;24.762;2023-06-22T10:06:36;6.15;;;4.80;;
28629;SDS011;15817;42.130;24.762;2023-06-22T10:09:06;5.13;;;4.53;;
28629;SDS011;15817;42.130;24.762;2023-06-22T10:11:33;6.05;;;4.40;;
28629;SDS011;15817;42.130;24.762;2023-06-22T10:14:00;6.95;;;4.28;;
28629;SDS011;15817;42.130;24.762;2023-06-22T10:16:30;20.52;;;5.30;;
28629;SDS011;15817;42.130;24.762;2023-06-22T10:18:57;10.75;;;4.38;;
28629;SDS011;15817;42.130;24.762;2023-06-22T10:21:25;5.03;;;4.40;;
28629;SDS011;15817;42.130;24.762;2023-06-22T10:24:00;4.95;;;4.45;;
28629;SDS011;15817;42.130;24.762;2023-06-22T10:27:10;4.60;;;4.15;;
28629;SDS011;15817;42.130;24.762;2023-06-22T10:29:43;8.93;;;4.82;;
28629;SDS011;15817;42.130;24.762;2023-06-22T10:32:46;5.93;;;4.20;;
28629;SDS011;15817;42.130;24.762;2023-06-22T10:35:14;4.72;;;4.32;;
28629;SDS011;15817;42.130;24.762;2023-06-22T10:37:42;5.00;;;4.50;;
28629;SDS011;15817;42.130;24.762;2023-06-22T10:40:14;10.45;;;4.72;;
28629;SDS011;15817;42.130;24.762;2023-06-22T10:42:41;4.90;;;4.43;;
28629;SDS011;15817;42.130;24.762;2023-06-22T10:45:07;5.55;;;4.40;;
28629;SDS011;15817;42.130;24.762;2023-06-22T10:47:34;4.90;;;3.92;;
28629;SDS011;15817;42.130;24.762;2023-06-22T10:50:03;5.22;;;4.53;;
28629;SDS011;15817;42.130;24.762;2023-06-22T10:52:29;6.53;;;4.30;;
28629;SDS011;15817;42.130;24.762;2023-06-22T10:54:55;5.32;;;4.05;;
28629;SDS011;15817;42.130;24.762;2023-06-22T10:57:24;4.32;;;3.92;;
28629;SDS011;15817;42.130;24.762;2023-06-22T10:59:50;5.85;;;4.22;;
28629;SDS011;15817;42.130;24.762;2023-06-22T11:02:15;6.90;;;4.25;;
28629;SDS011;15817;42.130;24.762;2023-06-22T11:04:41;8.45;;;4.53;;
28629;SDS011;15817;42.130;24.762;2023-06-22T11:07:07;7.63;;;4.60;;
28629;SDS011;15817;42.130;24.762;2023-06-22T11:09:34;4.85;;;3.70;;
28629;SDS011;15817;42.130;24.762;2023-06-22T11:12:00;4.82;;;4.43;;
28629;SDS011;15817;42.130;24.762;2023-06-22T11:14:28;7.38;;;4.30;;
28629;SDS011;15817;42.130;24.762;2023-06-22T11:17:02;5.10;;;4.63;;
28629;SDS011;15817;42.130;24.762;2023-06-22T11:19:27;6.90;;;4.68;;
28629;SDS011;15817;42.130;24.762;2023-06-22T11:21:56;5.05;;;4.15;;
28629;SDS011;15817;42.130;24.762;2023-06-22T11:24:24;5.35;;;4.57;;
28629;SDS011;15817;42.130;24.762;2023-06-22T11:26:50;15.38;;;5.00;;
28629;SDS011;15817;42.130;24.762;2023-06-22T11:29:16;7.70;;;4.22;;
28629;SDS011;15817;42.130;24.762;2023-06-22T11:31:47;7.80;;;4.78;;
28629;SDS011;15817;42.130;24.762;2023-06-22T11:34:13;5.38;;;4.60;;
28629;SDS011;15817;42.130;24.762;2023-06-22T11:36:39;11.10;;;4.80;;
28629;SDS011;15817;42.130;24.762;2023-06-22T11:39:05;6.13;;;4.35;;
28629;SDS011;15817;42.130;24.762;2023-06-22T11:41:35;4.60;;;4.20;;
28629;SDS011;15817;42.130;24.762;2023-06-22T11:44:00;6.15;;;4.50;;
28629;SDS011;15817;42.130;24.762;2023-06-22T11:46:26;10.82;;;4.20;;
28629;SDS011;15817;42.130;24.762;2023-06-22T11:48:55;7.85;;;4.28;;
28629;SDS011;15817;42.130;24.762;2023-06-22T11:51:21;4.95;;;4.13;;
28629;SDS011;15817;42.130;24.762;2023-06-22T11:54:07;5.15;;;4.28;;
28629;SDS011;15817;42.130;24.762;2023-06-22T11:56:35;7.43;;;4.68;;
28629;SDS011;15817;42.130;24.762;2023-06-22T11:59:04;6.22;;;4.47;;
28629;SDS011;15817;42.130;24.762;2023-06-22T12:01:30;4.53;;;4.18;;
28629;SDS011;15817;42.130;24.762;2023-06-22T12:03:58;7.10;;;4.13;;
28629;SDS011;15817;42.130;24.762;2023-06-22T12:06:24;4.75;;;4.32;;
28629;SDS011;15817;42.130;24.762;2023-06-22T12:08:50;4.43;;;4.03;;
28629;SDS011;15817;42.130;24.762;2023-06-22T12:11:18;6.57;;;4.55;;
28629;SDS011;15817;42.130;24.762;2023-06-22T12:13:46;11.18;;;4.40;;
28629;SDS011;15817;42.130;24.762;2023-06-22T12:16:15;5.85;;;3.95;;
28629;SDS011;15817;42.130;24.762;2023-06-22T12:18:50;7.43;;;4.35;;
28629;SDS011;15817;42.130;24.762;2023-06-22T12:21:16;4.78;;;4.30;;
28629;SDS011;15817;42.130;24.762;2023-06-22T12:23:41;6.18;;;4.88;;
28629;SDS011;15817;42.130;24.762;2023-06-22T12:26:07;4.78;;;4.20;;
28629;SDS011;15817;42.130;24.762;2023-06-22T12:28:36;6.50;;;3.92;;
28629;SDS011;15817;42.130;24.762;2023-06-22T12:31:04;6.22;;;4.55;;
28629;SDS011;15817;42.130;24.762;2023-06-22T12:33:33;5.82;;;4.22;;
28629;SDS011;15817;42.130;24.762;2023-06-22T12:36:02;5.30;;;4.10;;
28629;SDS011;15817;42.130;24.762;2023-06-22T12:38:30;5.07;;;4.68;;
28629;SDS011;15817;42.130;24.762;2023-06-22T12:40:55;5.32;;;4.40;;
28629;SDS011;15817;42.130;24.762;2023-06-22T12:43:21;5.07;;;4.63;;
28629;SDS011;15817;42.130;24.762;2023-06-22T12:45:47;4.20;;;3.72;;
28629;SDS011;15817;42.130;24.762;2023-06-22T12:48:13;4.97;;;4.57;;
28629;SDS011;15817;42.130;24.762;2023-06-22T12:50:38;6.63;;;4.60;;
28629;SDS011;15817;42.130;24.762;2023-06-22T12:53:04;5.28;;;4.50;;
28629;SDS011;15817;42.130;24.762;2023-06-22T12:55:31;5.88;;;4.50;;
28629;SDS011;15817;42.130;24.762;2023-06-22T12:58:00;5.57;;;4.25;;
28629;SDS011;15817;42.130;24.762;2023-06-22T13:00:26;7.80;;;4.85;;
28629;SDS011;15817;42.130;24.762;2023-06-22T13:02:54;8.45;;;4.63;;
28629;SDS011;15817;42.130;24.762;2023-06-22T13:05:20;7.57;;;4.53;;
28629;SDS011;15817;42.130;24.762;2023-06-22T13:07:45;8.25;;;4.97;;
28629;SDS011;15817;42.130;24.762;2023-06-22T13:10:14;7.85;;;4.50;;
28629;SDS011;15817;42.130;24.762;2023-06-22T13:12:46;12.05;;;4.90;;
28629;SDS011;15817;42.130;24.762;2023-06-22T13:15:13;5.90;;;4.80;;
28629;SDS011;15817;42.130;24.762;2023-06-22T13:17:39;8.10;;;4.55;;
28629;SDS011;15817;42.130;24.762;2023-06-22T13:20:05;6.60;;;4.28;;
28629;SDS011;15817;42.130;24.762;2023-06-22T13:22:35;4.60;;;4.20;;
28629;SDS011;15817;42.130;24.762;2023-06-22T13:25:05;4.63;;;4.22;;
28629;SDS011;15817;42.130;24.762;2023-06-22T13:27:32;5.30;;;4.80;;
28629;SDS011;15817;42.130;24.762;2023-06-22T13:29:58;7.13;;;4.95;;
28629;SDS011;15817;42.130;24.762;2023-06-22T13:32:28;6.53;;;4.63;;
28629;SDS011;15817;42.130;24.762;2023-06-22T13:34:54;4.72;;;4.18;;
28629;SDS011;15817;42.130;24.762;2023-06-22T13:37:19;6.53;;;4.57;;
28629;SDS011;15817;42.130;24.762;2023-06-22T13:39:45;6.40;;;4.75;;
28629;SDS011;15817;42.130;24.762;2023-06-22T13:42:11;5.78;;;4.30;;
28629;SDS011;15817;42.130;24.762;2023-06-22T13:44:48;5.18;;;4.47;;
28629;SDS011;15817;42.130;24.762;2023-06-22T13:47:14;5.25;;;4.75;;
28629;SDS011;15817;42.130;24.762;2023-06-22T13:49:40;4.90;;;4.45;;
28629;SDS011;15817;42.130;24.762;2023-06-22T13:52:06;7.82;;;4.90;;
28629;SDS011;15817;42.130;24.762;2023-06-22T13:54:36;8.27;;;4.90;;
28629;SDS011;15817;42.130;24.762;2023-06-22T13:57:02;5.85;;;4.80;;
28629;SDS011;15817;42.130;24.762;2023-06-22T13:59:28;6.15;;;4.70;;
28629;SDS011;15817;42.130;24.762;2023-06-22T14:01:54;5.72;;;4.43;;
28629;SDS011;15817;42.130;24.762;2023-06-22T14:04:25;5.28;;;4.70;;
28629;SDS011;15817;42.130;24.762;2023-06-22T14:06:51;6.22;;;4.95;;
28629;SDS011;15817;42.130;24.762;2023-06-22T14:09:17;5.50;;;4.95;;
28629;SDS011;15817;42.130;24.762;2023-06-22T14:11:46;6.53;;;4.95;;
28629;SDS011;15817;42.130;24.762;2023-06-22T14:14:15;5.55;;;4.93;;
28629;SDS011;15817;42.130;24.762;2023-06-22T14:16:40;6.13;;;4.60;;
28629;SDS011;15817;42.130;24.762;2023-06-22T14:19:07;12.55;;;5.55;;
28629;SDS011;15817;42.130;24.762;2023-06-22T14:21:32;6.22;;;5.25;;
28629;SDS011;15817;42.130;24.762;2023-06-22T14:23:58;10.30;;;5.15;;
28629;SDS011;15817;42.130;24.762;2023-06-22T14:26:24;7.07;;;4.65;;
28629;SDS011;15817;42.130;24.762;2023-06-22T14:28:50;7.50;;;4.65;;
28629;SDS011;15817;42.130;24.762;2023-06-22T14:31:22;7.38;;;4.50;;
28629;SDS011;15817;42.130;24.762;2023-06-22T14:33:48;7.45;;;5.60;;
28629;SDS011;15817;42.130;24.762;2023-06-22T14:36:15;9.30;;;4.95;;
28629;SDS011;15817;42.130;24.762;2023-06-22T14:38:42;6.00;;;5.40;;
28629;SDS011;15817;42.130;24.762;2023-06-22T14:41:11;9.18;;;5.53;;
28629;SDS011;15817;42.130;24.762;2023-06-22T14:43:53;6.82;;;5.53;;
28629;SDS011;15817;42.130;24.762;2023-06-22T14:46:19;6.80;;;5.38;;
28629;SDS011;15817;42.130;24.762;2023-06-22T14:48:51;8.43;;;5.88;;
28629;SDS011;15817;42.130;24.762;2023-06-22T14:51:17;10.98;;;5.70;;
28629;SDS011;15817;42.130;24.762;2023-06-22T14:53:46;9.00;;;5.35;;